Time;durP1;ratioP1;P1;durP2;ratioP2;P2;SDS_P1;SDS_P2;PMS_P1;PMS_P2;Temp;Humidity;BMP_temperature;BMP_pressure;BME280_temperature;BME280_humidity;BME280_pressure;Samples;Min_cycle;Max_cycle;Signal;HPM_P1;HPM_P2
2024/02/12 00:07:12;;;;;;;;;;;;;;;;;;5055663;28;19921;-88
2024/02/12 00:09:45;;;;;;;;;;;;;;;;;;5062065;28;20042;-88
2024/02/12 00:17:40;;;;;;;;;;;;;;;;;;5061282;28;19948;-88
2024/02/12 00:20:10;;;;;;;;;;;;;;;;;;5063047;28;20032;-88
2024/02/12 00:22:45;;;;;;;;;;;;;;;;;;5061374;28;19948;-88
2024/02/12 00:25:17;;;;;;;;;;;;;;;;;;5058436;28;19953;-88
2024/02/12 00:27:57;;;;;;;;;;;;;;;;;;;;;
2024/02/12 00:30:39;;;;;;;;;;;;;;;;;;5058173;28;19956;-89
2024/02/12 00:33:23;;;;;;;;;;;;;;;;;;5058766;28;19943;-89
2024/02/12 00:38:57;;;;;;;;;;;;;;;;;;;;;
2024/02/12 00:55:08;;;;;;;;;;;;;;;;;;5017194;28;20307;-88
2024/02/12 01:03:17;;;;;;;;;;;;;;;;;;5062690;28;20293;-88
2024/02/12 01:14:19;;;;;;;;;;;;;;;;;;5017351;28;19971;-88
2024/02/12 01:16:59;;;;;;;;;;;;;;;;;;5036445;28;19958;-88
2024/02/12 01:43:19;;;;;;;;;;;;;;;;;;5046814;28;19951;-88
2024/02/12 01:51:33;;;;;;;;;;;;;;;;;;5031387;28;20025;-87
2024/02/12 01:54:03;;;;;;;;;;;;;;;;;;5057964;28;20374;-87
2024/02/12 01:56:37;;;;;;;;;;;;;;;;;;5057052;28;19947;-88
2024/02/12 01:59:11;;;;;;;;;;;;;;;;;;5056729;28;20019;-87
2024/02/12 02:01:45;;;;;;;;;;;;;;;;;;5056941;28;19954;-88
2024/02/12 02:07:06;;;;;;;;;;;;;;;;;;5054693;28;20011;-88
2024/02/12 02:09:38;;;;;;;;;;;;;;;;;;5059676;28;19933;-87
2024/02/12 02:12:11;;;;;;;;;;;;;;;;;;5062628;28;19974;-87
2024/02/12 02:14:44;;;;;;;;;;;;;;;;;;5062095;28;19941;-87
2024/02/12 02:17:12;;;;;;;;;;;;;;;;;;5061851;28;20313;-88
2024/02/12 02:19:47;;;;;;;;;;;;;;;;;;5058944;28;19950;-88
2024/02/12 02:22:25;;;;;;;;;;;;;;;;;;5066747;28;19954;-87
2024/02/12 02:25:04;;;;;;;;;;;;;;;;;;5060593;28;20030;-88
2024/02/12 02:27:41;;;;;;;;;;;;;;;;;;5060497;28;20289;-89
2024/02/12 02:30:13;;;;;;;;;;;;;;;;;;5059206;28;20001;-88
2024/02/12 02:35:26;;;;;;;;;;;;;;;;;;5025573;28;19932;-87
2024/02/12 02:37:56;;;;;;;;;;;;;;;;;;5056589;28;19920;-87
2024/02/12 02:40:32;;;;;;;;;;;;;;;;;;5062083;28;19971;-88
2024/02/12 02:43:00;;;;;;;;;;;;;;;;;;5064108;28;19939;-87
2024/02/12 02:48:10;;;;;;;;;;;;;;;;;;5081015;28;19943;-85
2024/02/12 02:50:45;;;;;;;;;;;;;;;;;;5079068;28;19935;-86
2024/02/12 02:53:20;;;;;;;;;;;;;;;;;;5081525;28;19963;-88
2024/02/12 02:55:52;;;;;;;;;;;;;;;;;;5077894;28;19946;-87
2024/02/12 02:58:40;;;;;;;;;;;;;;;;;;5065793;28;19957;-88
2024/02/12 03:01:34;;;;;;;;;;;;;;;;;;5063260;28;19939;-87
2024/02/12 03:04:17;;;;;;;;;;;;;;;;;;5063913;28;19961;-87
2024/02/12 03:07:17;;;;;;;;;;;;;;;;;;;;;
2024/02/12 03:09:59;;;;;;;;;;;;;;;;;;5062852;28;19942;-88
2024/02/12 03:12:30;;;;;;;;;;;;;;;;;;5063131;28;19924;-87
2024/02/12 03:15:14;;;;;;;;;;;;;;;;;;5059675;28;19994;-87
2024/02/12 03:20:24;;;;;;;;;;;;;;;;;;5073898;22;19954;-86
2024/02/12 03:22:53;;;;;;;;;;;;;;;;;;5074944;28;19969;-86
2024/02/12 03:25:20;;;;;;;;;;;;;;;;;;5070246;28;19944;-86
2024/02/12 03:27:47;;;;;;;;;;;;;;;;;;5062048;28;20007;-87
2024/02/12 03:30:14;;;;;;;;;;;;;;;;;;5060950;28;19956;-86
2024/02/12 03:32:40;;;;;;;;;;;;;;;;;;5059712;28;20065;-86
2024/02/12 03:35:07;;;;;;;;;;;;;;;;;;5059608;28;20357;-86
2024/02/12 03:37:35;;;;;;;;;;;;;;;;;;5059086;28;19947;-86
2024/02/12 03:40:09;;;;;;;;;;;;;;;;;;5058458;28;19958;-86
2024/02/12 03:42:36;;;;;;;;;;;;;;;;;;5058839;28;19963;-86
2024/02/12 03:45:05;;;;;;;;;;;;;;;;;;5059129;28;19939;-86
2024/02/12 03:47:38;;;;;;;;;;;;;;;;;;5058620;28;19939;-86
2024/02/12 04:01:06;;;;;;;;;;;;;;;;;;5058918;28;19926;-87
2024/02/12 04:03:33;;;;;;;;;;;;;;;;;;5058667;28;19927;-86
2024/02/12 04:06:00;;;;;;;;;;;;;;;;;;5059423;28;19946;-86
2024/02/12 04:08:27;;;;;;;;;;;;;;;;;;5059002;28;19939;-86
2024/02/12 04:10:55;;;;;;;;;;;;;;;;;;5069185;28;20362;-86
2024/02/12 04:13:22;;;;;;;;;;;;;;;;;;5076824;28;20033;-86
2024/02/12 04:15:49;;;;;;;;;;;;;;;;;;5069238;28;19940;-86
2024/02/12 04:18:16;;;;;;;;;;;;;;;;;;5061487;28;19939;-88
2024/02/12 04:20:46;;;;;;;;;;;;;;;;;;5064001;28;19970;-88
2024/02/12 04:23:15;;;;;;;;;;;;;;;;;;5077420;28;19921;-88
2024/02/12 04:25:42;;;;;;;;;;;;;;;;;;5080033;28;19940;-87
2024/02/12 04:28:11;;;;;;;;;;;;;;;;;;5075476;28;19983;-86
2024/02/12 04:30:38;;;;;;;;;;;;;;;;;;5069092;28;19968;-86
2024/02/12 04:33:05;;;;;;;;;;;;;;;;;;5061608;28;19921;-87
2024/02/12 04:35:33;;;;;;;;;;;;;;;;;;5060722;28;19941;-86
2024/02/12 04:38:00;;;;;;;;;;;;;;;;;;5061339;28;20012;-87
2024/02/12 04:40:27;;;;;;;;;;;;;;;;;;5059863;28;19955;-87
2024/02/12 04:42:54;;;;;;;;;;;;;;;;;;5060022;28;20003;-86
2024/02/12 04:45:21;;;;;;;;;;;;;;;;;;5074969;28;19924;-86
2024/02/12 04:47:48;;;;;;;;;;;;;;;;;;5078231;28;19966;-87
2024/02/12 04:50:15;;;;;;;;;;;;;;;;;;5078382;28;19950;-87
2024/02/12 04:52:42;;;;;;;;;;;;;;;;;;5076985;28;19976;-87
2024/02/12 04:55:10;;;;;;;;;;;;;;;;;;5069671;28;19942;-87
2024/02/12 04:57:37;;;;;;;;;;;;;;;;;;5066591;28;19920;-86
2024/02/12 05:00:04;;;;;;;;;;;;;;;;;;5069344;28;20029;-86
2024/02/12 05:02:32;;;;;;;;;;;;;;;;;;5077597;28;19921;-85
2024/02/12 05:04:59;;;;;;;;;;;;;;;;;;5078813;28;19988;-86
2024/02/12 05:07:27;;;;;;;;;;;;;;;;;;5064226;28;19939;-87
2024/02/12 05:09:54;;;;;;;;;;;;;;;;;;5063992;28;19962;-87
2024/02/12 05:12:21;;;;;;;;;;;;;;;;;;5067100;28;19962;-84
2024/02/12 05:14:48;;;;;;;;;;;;;;;;;;5058705;28;19920;-86
2024/02/12 05:17:23;;;;;;;;;;;;;;;;;;5063244;28;19996;-87
2024/02/12 05:22:34;;;;;;;;;;;;;;;;;;5061858;28;19965;-87
2024/02/12 05:25:02;;;;;;;;;;;;;;;;;;5059612;28;19970;-87
2024/02/12 05:27:30;;;;;;;;;;;;;;;;;;5060670;28;19943;-87
2024/02/12 05:29:57;;;;;;;;;;;;;;;;;;5058836;28;19956;-87
2024/02/12 05:32:30;;;;;;;;;;;;;;;;;;5074063;28;19946;-86
2024/02/12 05:34:57;;;;;;;;;;;;;;;;;;5076946;28;19942;-88
2024/02/12 05:37:24;;;;;;;;;;;;;;;;;;5062453;28;19967;-87
2024/02/12 05:39:51;;;;;;;;;;;;;;;;;;5058701;28;20383;-87
2024/02/12 05:42:18;;;;;;;;;;;;;;;;;;5058411;28;20033;-87
2024/02/12 05:44:46;;;;;;;;;;;;;;;;;;5061246;28;20000;-87
2024/02/12 05:47:13;;;;;;;;;;;;;;;;;;5071294;28;19996;-86
2024/02/12 05:49:40;;;;;;;;;;;;;;;;;;5059288;28;19960;-86
2024/02/12 05:52:08;;;;;;;;;;;;;;;;;;5057631;28;19967;-86
2024/02/12 05:54:35;;;;;;;;;;;;;;;;;;5058103;28;20320;-87
2024/02/12 05:57:06;;;;;;;;;;;;;;;;;;5076673;28;19932;-88
2024/02/12 05:59:34;;;;;;;;;;;;;;;;;;5076757;28;20006;-87
2024/02/12 06:02:02;;;;;;;;;;;;;;;;;;5069278;28;19989;-87
2024/02/12 06:04:29;;;;;;;;;;;;;;;;;;5058598;28;20060;-87
2024/02/12 06:06:56;;;;;;;;;;;;;;;;;;5058936;28;19945;-88
2024/02/12 06:09:23;;;;;;;;;;;;;;;;;;5058821;28;19955;-88
2024/02/12 06:11:50;;;;;;;;;;;;;;;;;;5066567;28;20009;-88
2024/02/12 06:14:17;;;;;;;;;;;;;;;;;;5069211;28;19939;-88
2024/02/12 06:16:45;;;;;;;;;;;;;;;;;;5064216;28;19945;-88
2024/02/12 06:19:12;;;;;;;;;;;;;;;;;;5062288;28;20369;-87
2024/02/12 06:21:39;;;;;;;;;;;;;;;;;;5065651;28;20388;-86
2024/02/12 06:24:06;;;;;;;;;;;;;;;;;;5068712;28;19950;-86
2024/02/12 06:26:36;;;;;;;;;;;;;;;;;;5073813;28;19999;-88
2024/02/12 06:29:03;;;;;;;;;;;;;;;;;;5072462;28;19958;-87
2024/02/12 06:31:31;;;;;;;;;;;;;;;;;;5074268;28;20003;-87
2024/02/12 06:33:58;;;;;;;;;;;;;;;;;;5070560;28;20021;-87
2024/02/12 06:36:25;;;;;;;;;;;;;;;;;;5067035;28;20003;-87
2024/02/12 06:38:52;;;;;;;;;;;;;;;;;;5077089;28;19958;-87
2024/02/12 06:41:20;;;;;;;;;;;;;;;;;;5068859;28;20370;-87
2024/02/12 06:43:47;;;;;;;;;;;;;;;;;;5063044;28;19945;-87
2024/02/12 06:46:14;;;;;;;;;;;;;;;;;;5077734;28;19947;-87
2024/02/12 06:48:41;;;;;;;;;;;;;;;;;;5078959;28;19932;-87
2024/02/12 06:51:09;;;;;;;;;;;;;;;;;;5069596;28;19942;-87
2024/02/12 06:53:36;;;;;;;;;;;;;;;;;;5066415;28;19951;-88
2024/02/12 06:56:07;;;;;;;;;;;;;;;;;;5074722;28;20015;-88
2024/02/12 06:58:34;;;;;;;;;;;;;;;;;;5062792;28;19937;-87
2024/02/12 07:01:04;;;;;;;;;;;;;;;;;;5061428;28;20061;-87
2024/02/12 07:03:32;;;;;;;;;;;;;;;;;;5061374;28;19946;-87
2024/02/12 07:05:59;;;;;;;;;;;;;;;;;;5061533;28;19946;-88
2024/02/12 07:08:26;;;;;;;;;;;;;;;;;;5062376;28;20379;-88
2024/02/12 07:10:53;;;;;;;;;;;;;;;;;;5067895;28;19941;-87
2024/02/12 07:13:20;;;;;;;;;;;;;;;;;;5077025;28;19954;-87
2024/02/12 07:15:47;;;;;;;;;;;;;;;;;;5065094;28;20013;-87
2024/02/12 07:18:14;;;;;;;;;;;;;;;;;;5061753;28;19944;-87
2024/02/12 07:20:41;;;;;;;;;;;;;;;;;;5062666;28;20012;-86
2024/02/12 07:23:08;;;;;;;;;;;;;;;;;;5065479;28;19943;-86
2024/02/12 07:25:37;;;;;;;;;;;;;;;;;;5061145;28;19950;-86
2024/02/12 07:28:04;;;;;;;;;;;;;;;;;;5062920;28;19950;-87
2024/02/12 07:30:31;;;;;;;;;;;;;;;;;;5071639;28;19970;-86
2024/02/12 07:33:02;;;;;;;;;;;;;;;;;;5068448;28;19964;-86
2024/02/12 07:35:30;;;;;;;;;;;;;;;;;;5060639;28;20041;-86
2024/02/12 07:37:58;;;;;;;;;;;;;;;;;;5072877;28;19925;-85
2024/02/12 07:40:25;;;;;;;;;;;;;;;;;;5077156;28;19956;-86
2024/02/12 07:42:52;;;;;;;;;;;;;;;;;;5064275;28;20043;-85
2024/02/12 07:45:19;;;;;;;;;;;;;;;;;;5062868;28;19961;-84
2024/02/12 07:47:46;;;;;;;;;;;;;;;;;;5061756;28;20015;-86
2024/02/12 07:50:14;;;;;;;;;;;;;;;;;;5059965;28;20006;-85
2024/02/12 07:52:41;;;;;;;;;;;;;;;;;;5064371;28;19960;-86
2024/02/12 07:55:09;;;;;;;;;;;;;;;;;;5066947;28;19973;-85
2024/02/12 07:57:37;;;;;;;;;;;;;;;;;;5071517;28;19961;-85
2024/02/12 08:00:04;;;;;;;;;;;;;;;;;;5077474;28;19958;-85
2024/02/12 08:02:31;;;;;;;;;;;;;;;;;;5076794;28;19991;-85
2024/02/12 08:04:58;;;;;;;;;;;;;;;;;;5067695;28;19983;-88
2024/02/12 08:07:25;;;;;;;;;;;;;;;;;;5079146;28;20003;-88
2024/02/12 08:09:52;;;;;;;;;;;;;;;;;;5079769;28;19960;-90
2024/02/12 08:12:19;;;;;;;;;;;;;;;;;;5079647;28;19942;-89
2024/02/12 08:14:46;;;;;;;;;;;;;;;;;;5080560;28;19924;-88
2024/02/12 08:17:13;;;;;;;;;;;;;;;;;;5080437;28;19938;-88
2024/02/12 08:19:41;;;;;;;;;;;;;;;;;;5080441;28;19969;-87
2024/02/12 08:22:08;;;;;;;;;;;;;;;;;;5080217;28;19925;-87
2024/02/12 08:24:35;;;;;;;;;;;;;;;;;;5080332;28;19925;-87
2024/02/12 08:27:03;;;;;;;;;;;;;;;;;;5080160;28;19949;-88
2024/02/12 08:29:30;;;;;;;;;;;;;;;;;;5079120;28;19967;-86
2024/02/12 08:32:04;;;;;;;;;;;;;;;;;;5076632;28;19932;-88
2024/02/12 08:34:33;;;;;;;;;;;;;;;;;;5077704;28;20001;-88
2024/02/12 08:37:07;;;;;;;;;;;;;;;;;;5079472;28;19924;-88
2024/02/12 08:39:41;;;;;;;;;;;;;;;;;;5076523;28;19945;-88
2024/02/12 08:42:08;;;;;;;;;;;;;;;;;;5061916;28;19964;-89
2024/02/12 08:44:36;;;;;;;;;;;;;;;;;;5059964;28;19942;-88
2024/02/12 08:47:03;;;;;;;;;;;;;;;;;;5063571;28;20420;-89
2024/02/12 08:49:30;;;;;;;;;;;;;;;;;;5069572;28;20020;-89
2024/02/12 08:51:58;;;;;;;;;;;;;;;;;;5065074;28;19987;-89
2024/02/12 08:54:31;;;;;;;;;;;;;;;;;;5077384;28;19956;-88
2024/02/12 08:56:58;;;;;;;;;;;;;;;;;;5067118;28;19937;-89
2024/02/12 08:59:25;;;;;;;;;;;;;;;;;;5062658;28;20044;-89
2024/02/12 09:01:52;;;;;;;;;;;;;;;;;;5064404;28;20345;-88
2024/02/12 09:04:19;;;;;;;;;;;;;;;;;;5065234;28;19941;-88
2024/02/12 09:06:46;;;;;;;;;;;;;;;;;;5066958;28;19940;-88
2024/02/12 09:09:13;;;;;;;;;;;;;;;;;;5077009;28;19952;-89
2024/02/12 09:11:41;;;;;;;;;;;;;;;;;;5078344;28;19977;-90
2024/02/12 09:14:11;;;;;;;;;;;;;;;;;;5063011;28;20379;-89
2024/02/12 09:16:38;;;;;;;;;;;;;;;;;;5060496;28;19941;-90
2024/02/12 09:19:08;;;;;;;;;;;;;;;;;;5061981;28;19962;-89
2024/02/12 09:21:35;;;;;;;;;;;;;;;;;;5089323;22;19988;-86
2024/02/12 09:24:02;;;;;;;;;;;;;;;;;;5074337;28;19989;-87
2024/02/12 09:26:30;;;;;;;;;;;;;;;;;;5071153;28;19947;-86
2024/02/12 09:28:58;;;;;;;;;;;;;;;;;;5072298;28;19933;-86
2024/02/12 09:31:33;;;;;;;;;;;;;;;;;;5074865;28;19984;-88
2024/02/12 09:34:02;;;;;;;;;;;;;;;;;;5065473;28;20003;-87
2024/02/12 09:36:29;;;;;;;;;;;;;;;;;;5063953;28;19945;-87
2024/02/12 09:38:57;;;;;;;;;;;;;;;;;;5063600;28;20000;-87
2024/02/12 09:41:28;;;;;;;;;;;;;;;;;;5064315;28;19967;-87
2024/02/12 09:43:55;;;;;;;;;;;;;;;;;;5066939;28;19945;-87
2024/02/12 09:46:22;;;;;;;;;;;;;;;;;;5060713;28;19987;-88
2024/02/12 09:48:49;;;;;;;;;;;;;;;;;;5061424;28;19946;-88
2024/02/12 09:51:17;;;;;;;;;;;;;;;;;;5061341;28;20475;-87
2024/02/12 09:53:51;;;;;;;;;;;;;;;;;;5062630;28;20014;-88
2024/02/12 09:56:18;;;;;;;;;;;;;;;;;;5064351;28;19964;-88
2024/02/12 09:58:46;;;;;;;;;;;;;;;;;;5074409;28;19945;-87
2024/02/12 10:01:13;;;;;;;;;;;;;;;;;;5073816;28;19977;-86
2024/02/12 10:03:41;;;;;;;;;;;;;;;;;;5062928;28;19950;-88
2024/02/12 10:08:51;;;;;;;;;;;;;;;;;;5046704;28;19950;-86
2024/02/12 10:11:18;;;;;;;;;;;;;;;;;;5060991;28;19951;-86
2024/02/12 10:13:45;;;;;;;;;;;;;;;;;;5062265;28;20362;-88
2024/02/12 10:16:12;;;;;;;;;;;;;;;;;;5059988;28;19977;-89
2024/02/12 10:18:39;;;;;;;;;;;;;;;;;;5060136;28;20353;-88
2024/02/12 10:21:10;;;;;;;;;;;;;;;;;;5059464;28;19959;-87
2024/02/12 10:23:37;;;;;;;;;;;;;;;;;;5060633;28;19943;-87
2024/02/12 10:28:46;;;;;;;;;;;;;;;;;;5063157;28;19951;-87
2024/02/12 10:31:14;;;;;;;;;;;;;;;;;;5060337;28;19958;-87
2024/02/12 10:33:41;;;;;;;;;;;;;;;;;;5063656;28;19990;-86
2024/02/12 10:36:09;;;;;;;;;;;;;;;;;;5067395;28;19940;-87
2024/02/12 10:38:41;;;;;;;;;;;;;;;;;;5067317;28;19941;-88
2024/02/12 10:41:13;;;;;;;;;;;;;;;;;;5063033;28;19959;-88
2024/02/12 10:43:47;;;;;;;;;;;;;;;;;;5063418;28;19935;-88
2024/02/12 10:46:19;;;;;;;;;;;;;;;;;;5063014;28;19942;-88
2024/02/12 10:48:49;;;;;;;;;;;;;;;;;;5068543;28;19948;-86
2024/02/12 10:51:19;;;;;;;;;;;;;;;;;;5076963;28;19942;-85
2024/02/12 10:53:57;;;;;;;;;;;;;;;;;;5078229;28;20003;-86
2024/02/12 10:59:05;;;;;;;;;;;;;;;;;;5052101;28;20329;-88
2024/02/12 11:01:32;;;;;;;;;;;;;;;;;;5063969;28;19960;-88
2024/02/12 11:04:05;;;;;;;;;;;;;;;;;;5064113;28;20405;-88
2024/02/12 11:06:34;;;;;;;;;;;;;;;;;;5064645;28;19943;-88
2024/02/12 11:09:04;;;;;;;;;;;;;;;;;;5057823;28;20030;-88
2024/02/12 11:14:23;;;;;;;;;;;;;;;;;;5028327;28;19965;-88
2024/02/12 11:16:50;;;;;;;;;;;;;;;;;;5064721;28;19941;-87
2024/02/12 11:19:17;;;;;;;;;;;;;;;;;;5064430;28;19944;-88
2024/02/12 11:21:44;;;;;;;;;;;;;;;;;;5065221;28;20043;-87
2024/02/12 11:24:28;;;;;;;;;;;;;;;;;;5065088;28;20035;-88
2024/02/12 11:26:58;;;;;;;;;;;;;;;;;;5065474;28;19948;-88
2024/02/12 11:29:25;;;;;;;;;;;;;;;;;;5065432;28;19949;-87
2024/02/12 11:31:52;;;;;;;;;;;;;;;;;;5065445;28;19962;-87
2024/02/12 11:34:19;;;;;;;;;;;;;;;;;;5065881;28;19960;-88
2024/02/12 11:36:46;;;;;;;;;;;;;;;;;;5068454;28;19952;-87
2024/02/12 11:39:13;;;;;;;;;;;;;;;;;;5068390;28;19978;-87
2024/02/12 11:41:40;;;;;;;;;;;;;;;;;;5075650;28;19962;-86
2024/02/12 11:44:07;;;;;;;;;;;;;;;;;;5076840;28;19952;-87
2024/02/12 11:46:35;;;;;;;;;;;;;;;;;;5077998;28;19967;-86
2024/02/12 11:49:03;;;;;;;;;;;;;;;;;;5072002;28;20009;-86
2024/02/12 11:51:30;;;;;;;;;;;;;;;;;;5068621;28;19956;-87
2024/02/12 11:53:57;;;;;;;;;;;;;;;;;;5073287;28;19983;-87
2024/02/12 11:56:24;;;;;;;;;;;;;;;;;;5076425;28;19941;-87
2024/02/12 11:58:51;;;;;;;;;;;;;;;;;;5080059;28;19969;-86
2024/02/12 12:01:18;;;;;;;;;;;;;;;;;;5080875;28;19951;-87
2024/02/12 12:03:45;;;;;;;;;;;;;;;;;;5080952;28;19933;-86
2024/02/12 12:06:14;;;;;;;;;;;;;;;;;;5077886;28;20033;-86
2024/02/12 12:35:29;;;;;;;;;;;;;;;;;;;;;
2024/02/12 12:38:09;;;;;;;;;;;;;;;;;;5046869;28;19965;-90
2024/02/12 12:51:54;;;;;;;;;;;;;;;;;;4979093;28;19984;-88
2024/02/12 13:00:18;;;;;;;;;;;;;;;;;;5040114;28;19990;-90
2024/02/12 13:02:56;;;;;;;;;;;;;;;;;;5053067;28;20435;-89
2024/02/12 13:05:36;;;;;;;;;;;;;;;;;;5056839;28;19990;-91
2024/02/12 13:08:25;;;;;;;;;;;;;;;;;;;;;
2024/02/12 14:20:34;;;;;;;;;;;;;;;;;;5026802;28;19986;-90
2024/02/12 14:23:09;;;;;;;;;;;;;;;;;;5021414;28;20385;-90
2024/02/12 14:33:31;;;;;;;;;;;;;;;;;;3240242;26;19982;-86
2024/02/12 14:35:59;;;;;;;;;;;;;;;;;;5042790;28;19938;-86
2024/02/12 14:38:26;;;;;;;;;;;;;;;;;;5058863;28;20056;-86
2024/02/12 14:40:56;;;;;;;;;;;;;;;;;;5058655;28;19947;-88
2024/02/12 14:43:23;;;;;;;;;;;;;;;;;;5045743;28;19940;-87
2024/02/12 14:45:50;;;;;;;;;;;;;;;;;;5043736;28;19949;-87
2024/02/12 14:48:17;;;;;;;;;;;;;;;;;;5043245;28;20065;-87
2024/02/12 14:50:44;;;;;;;;;;;;;;;;;;5045374;28;20298;-86
2024/02/12 14:53:11;;;;;;;;;;;;;;;;;;5044329;28;19953;-85
2024/02/12 14:55:38;;;;;;;;;;;;;;;;;;5046140;28;19960;-86
2024/02/12 14:58:06;;;;;;;;;;;;;;;;;;5060213;28;19944;-85
2024/02/12 15:00:33;;;;;;;;;;;;;;;;;;5059362;28;19924;-86
2024/02/12 15:03:01;;;;;;;;;;;;;;;;;;5060242;28;19930;-85
2024/02/12 15:05:28;;;;;;;;;;;;;;;;;;5056693;28;19929;-86
2024/02/12 15:07:57;;;;;;;;;;;;;;;;;;5048475;28;19991;-87
2024/02/12 15:10:24;;;;;;;;;;;;;;;;;;5050103;28;19944;-86
2024/02/12 15:12:52;;;;;;;;;;;;;;;;;;5052110;28;19943;-85
2024/02/12 15:15:19;;;;;;;;;;;;;;;;;;5050807;28;19952;-87
2024/02/12 15:17:46;;;;;;;;;;;;;;;;;;5050209;28;19977;-85
2024/02/12 15:20:13;;;;;;;;;;;;;;;;;;5057351;28;19939;-86
2024/02/12 15:22:40;;;;;;;;;;;;;;;;;;5058871;28;19933;-87
2024/02/12 15:25:09;;;;;;;;;;;;;;;;;;5058845;28;19943;-87
2024/02/12 15:27:36;;;;;;;;;;;;;;;;;;5051739;28;20000;-86
2024/02/12 15:30:04;;;;;;;;;;;;;;;;;;5058484;28;20011;-85
2024/02/12 15:32:31;;;;;;;;;;;;;;;;;;5059866;28;19937;-86
2024/02/12 15:35:05;;;;;;;;;;;;;;;;;;5058239;28;19963;-85
2024/02/12 15:37:32;;;;;;;;;;;;;;;;;;5057423;28;19964;-86
2024/02/12 15:39:59;;;;;;;;;;;;;;;;;;5051814;28;19946;-86
2024/02/12 15:42:32;;;;;;;;;;;;;;;;;;5041814;28;19942;-85
2024/02/12 15:44:59;;;;;;;;;;;;;;;;;;5045680;28;19942;-87
2024/02/12 15:47:26;;;;;;;;;;;;;;;;;;5044166;28;19925;-88
2024/02/12 15:49:54;;;;;;;;;;;;;;;;;;5042981;28;19942;-87
2024/02/12 15:52:25;;;;;;;;;;;;;;;;;;5044783;28;20350;-87
2024/02/12 15:54:52;;;;;;;;;;;;;;;;;;5041565;28;20008;-87
2024/02/12 15:57:23;;;;;;;;;;;;;;;;;;5041172;28;19970;-87
2024/02/12 15:59:50;;;;;;;;;;;;;;;;;;5040820;28;19951;-87
2024/02/12 16:02:18;;;;;;;;;;;;;;;;;;5041370;28;19920;-87
2024/02/12 16:04:45;;;;;;;;;;;;;;;;;;5041328;28;19991;-87
2024/02/12 16:07:14;;;;;;;;;;;;;;;;;;5043929;28;19951;-87
2024/02/12 16:09:41;;;;;;;;;;;;;;;;;;5053358;28;19944;-86
2024/02/12 16:12:09;;;;;;;;;;;;;;;;;;5060027;28;19958;-84
2024/02/12 16:14:36;;;;;;;;;;;;;;;;;;5060775;28;19940;-83
2024/02/12 16:17:03;;;;;;;;;;;;;;;;;;5060548;28;19939;-83
2024/02/12 16:19:30;;;;;;;;;;;;;;;;;;5060486;28;19941;-85
2024/02/12 16:21:59;;;;;;;;;;;;;;;;;;5058887;28;19935;-86
2024/02/12 16:24:26;;;;;;;;;;;;;;;;;;5047054;28;19952;-86
2024/02/12 16:26:54;;;;;;;;;;;;;;;;;;5047870;28;19992;-88
2024/02/12 16:29:21;;;;;;;;;;;;;;;;;;5042302;28;19955;-87
2024/02/12 16:31:50;;;;;;;;;;;;;;;;;;5059818;28;19959;-87
2024/02/12 16:34:18;;;;;;;;;;;;;;;;;;5056809;28;19941;-87
2024/02/12 16:36:45;;;;;;;;;;;;;;;;;;5042265;28;19943;-87
2024/02/12 16:39:14;;;;;;;;;;;;;;;;;;5041198;28;20001;-87
2024/02/12 16:41:42;;;;;;;;;;;;;;;;;;5041053;28;19976;-87
2024/02/12 16:44:09;;;;;;;;;;;;;;;;;;5042769;28;19948;-88
2024/02/12 18:26:05;;;;;;;;;;;;;;;;;;5017563;28;19949;-87
2024/02/12 20:36:52;;;;;;;;;;;;;;;;;;5010197;28;19970;-89
2024/02/12 20:39:19;;;;;;;;;;;;;;;;;;5034623;28;19921;-89
2024/02/12 21:18:25;;;;;;;;;;;;;;;;;;1424562;26;19960;-87
2024/02/12 21:20:52;;;;;;;;;;;;;;;;;;5058831;28;19923;-88
